Time;durP1;ratioP1;P1;durP2;ratioP2;P2;SDS_P1;SDS_P2;PMS_P1;PMS_P2;Temp;Humidity;BMP_temperature;BMP_pressure;BME280_temperature;BME280_humidity;BME280_pressure;Samples;Min_cycle;Max_cycle;Signal;HPM_P1;HPM_P2
2022/04/03 00:00:33;;;;;;;4.05;2.50;;;;;;;8.57;95.41;99431.25;5028616;28;20108;-83
2022/04/03 00:02:59;;;;;;;4.10;2.45;;;;;;;9.00;95.11;99472.75;5028422;28;20048;-83
2022/04/03 00:05:25;;;;;;;4.50;2.55;;;;;;;9.13;94.90;99471.34;5028231;28;20040;-83
2022/04/03 00:07:50;;;;;;;4.60;3.05;;;;;;;9.25;94.00;99460.53;5028230;28;20045;-82
2022/04/03 00:10:16;;;;;;;5.35;1.95;;;;;;;9.46;93.21;99482.50;5028420;28;20037;-83
2022/04/03 00:12:41;;;;;;;7.68;2.72;;;;;;;9.46;92.27;99464.47;5027717;28;20042;-83
2022/04/03 00:15:07;;;;;;;5.28;2.30;;;;;;;9.29;92.15;99423.72;5028107;28;20029;-83
2022/04/03 00:17:33;;;;;;;2.95;2.00;;;;;;;9.53;91.49;99469.84;5011489;28;20071;-83
2022/04/03 00:19:59;;;;;;;4.95;2.22;;;;;;;9.50;91.75;99456.00;5027887;28;20124;-83
2022/04/03 00:22:24;;;;;;;4.93;2.25;;;;;;;9.71;91.23;99460.81;5028384;28;20044;-85
2022/04/03 00:24:52;;;;;;;4.35;2.08;;;;;;;9.71;90.61;99453.94;5039253;28;20115;-84
2022/04/03 00:27:17;;;;;;;4.57;2.30;;;;;;;9.94;90.61;99455.31;5049326;28;20068;-85
2022/04/03 00:29:43;;;;;;;3.42;2.38;;;;;;;9.95;89.38;99452.75;5032724;28;20087;-86
2022/04/03 00:32:08;;;;;;;4.40;2.40;;;;;;;9.82;89.31;99440.41;5050321;28;20079;-85
2022/04/03 00:34:34;;;;;;;3.80;2.50;;;;;;;9.81;89.81;99441.28;5049895;28;20098;-84
2022/04/03 00:36:59;;;;;;;4.50;2.40;;;;;;;9.92;89.71;99467.28;5050429;28;20052;-84
2022/04/03 00:39:25;;;;;;;5.78;2.80;;;;;;;9.64;90.23;99415.09;5048946;28;20124;-85
2022/04/03 00:41:50;;;;;;;7.63;2.50;;;;;;;9.86;90.49;99457.72;5049024;28;20124;-84
2022/04/03 00:44:17;;;;;;;5.55;2.40;;;;;;;9.89;90.36;99457.78;5050634;28;20045;-84
2022/04/03 00:46:44;;;;;;;5.00;2.70;;;;;;;9.78;89.70;99454.09;5048923;28;20041;-85
2022/04/03 00:49:10;;;;;;;5.53;2.63;;;;;;;9.93;89.81;99469.03;5048403;28;20055;-83
2022/04/03 00:51:35;;;;;;;4.80;2.47;;;;;;;9.96;89.64;99467.41;5050473;28;20047;-84
2022/04/03 00:54:01;;;;;;;6.20;2.78;;;;;;;9.93;89.62;99440.69;5050096;28;20036;-83
2022/04/03 00:56:26;;;;;;;7.03;2.70;;;;;;;10.02;88.55;99470.13;5050034;28;20094;-84
2022/04/03 00:58:52;;;;;;;3.33;2.35;;;;;;;9.82;89.29;99472.25;5050083;28;20055;-83
2022/04/03 01:01:19;;;;;;;4.65;2.40;;;;;;;9.59;89.98;99453.63;5048654;28;20154;-84
2022/04/03 01:03:45;;;;;;;4.82;2.67;;;;;;;9.64;90.18;99471.78;5049721;28;20029;-83
2022/04/03 01:06:11;;;;;;;4.18;2.50;;;;;;;9.67;89.96;99464.13;5049003;28;20044;-84
2022/04/03 01:08:36;;;;;;;4.63;2.60;;;;;;;9.20;90.27;99392.59;5050157;28;20055;-84
2022/04/03 01:11:02;;;;;;;5.45;2.55;;;;;;;9.72;90.75;99483.19;5048714;28;20055;-84
2022/04/03 01:13:27;;;;;;;5.60;2.85;;;;;;;9.55;90.76;99456.97;5048824;28;20040;-84
2022/04/03 01:15:55;;;;;;;4.15;2.80;;;;;;;9.65;90.58;99479.56;5050048;28;20033;-84
2022/04/03 01:18:23;;;;;;;5.85;2.90;;;;;;;9.65;91.08;99476.13;5048193;28;20021;-82
2022/04/03 01:20:49;;;;;;;6.57;2.67;;;;;;;9.60;90.59;99452.81;5049886;28;20099;-84
2022/04/03 01:23:15;;;;;;;4.18;3.00;;;;;;;9.71;90.44;99471.97;5049858;28;20031;-84
2022/04/03 01:25:41;;;;;;;5.32;2.95;;;;;;;9.73;91.06;99474.59;5051050;28;20040;-83
2022/04/03 01:28:08;;;;;;;5.57;2.95;;;;;;;9.47;91.95;99451.66;5053519;28;20021;-83
2022/04/03 01:30:34;;;;;;;3.42;2.30;;;;;;;9.61;91.38;99470.03;5052396;28;20412;-83
2022/04/03 01:32:59;;;;;;;5.13;2.67;;;;;;;9.60;91.06;99468.28;5051962;28;20029;-83
2022/04/03 01:35:25;;;;;;;4.10;3.17;;;;;;;9.59;91.31;99463.09;5053431;28;20033;-83
2022/04/03 01:37:50;;;;;;;6.10;3.08;;;;;;;9.44;91.24;99440.38;5052179;28;20029;-83
2022/04/03 01:40:16;;;;;;;5.22;2.97;;;;;;;9.64;91.28;99477.81;5052251;28;20032;-83
2022/04/03 01:42:41;;;;;;;4.97;3.10;;;;;;;9.59;90.89;99473.41;5053369;28;20032;-84
2022/04/03 01:45:07;;;;;;;4.30;2.88;;;;;;;9.65;91.32;99478.69;5053286;28;20048;-84
2022/04/03 01:47:34;;;;;;;5.03;3.00;;;;;;;9.46;91.83;99461.88;5051544;28;20480;-83
2022/04/03 01:50:00;;;;;;;3.33;2.47;;;;;;;9.65;91.55;99494.16;5053354;28;20033;-82
2022/04/03 01:52:25;;;;;;;4.28;2.88;;;;;;;9.76;91.03;99486.66;5053194;28;20533;-83
2022/04/03 01:54:51;;;;;;;4.68;2.72;;;;;;;9.68;91.03;99465.88;5053352;28;20461;-83
2022/04/03 01:57:16;;;;;;;5.90;2.78;;;;;;;9.81;90.45;99473.06;5051646;28;20021;-84
2022/04/03 01:59:41;;;;;;;5.13;2.70;;;;;;;9.76;90.71;99476.38;5053045;28;20040;-84
2022/04/03 02:02:07;;;;;;;5.63;2.90;;;;;;;9.69;91.09;99471.09;5052986;28;20029;-85
2022/04/03 02:04:32;;;;;;;5.00;2.90;;;;;;;9.57;90.81;99460.47;5052982;28;20427;-83
2022/04/03 02:06:58;;;;;;;4.68;3.10;;;;;;;9.41;92.00;99442.88;5051687;28;20029;-82
2022/04/03 02:09:24;;;;;;;4.90;3.17;;;;;;;8.92;94.23;99409.88;5053241;28;20033;-83
2022/04/03 02:11:49;;;;;;;4.72;2.80;;;;;;;8.68;97.08;99410.09;5052723;28;20399;-83
2022/04/03 02:14:15;;;;;;;6.00;3.28;;;;;;;8.69;97.98;99407.56;5051357;28;20098;-83
2022/04/03 02:16:40;;;;;;;6.43;3.60;;;;;;;8.73;97.58;99380.22;5052136;28;20037;-82
2022/04/03 02:19:05;;;;;;;5.30;3.50;;;;;;;8.64;97.48;99391.13;5052844;28;20039;-82
2022/04/03 02:21:31;;;;;;;6.68;4.28;;;;;;;8.59;98.67;99395.28;5051456;28;20059;-82
2022/04/03 02:23:56;;;;;;;6.40;3.97;;;;;;;8.66;98.18;99389.47;5051607;28;20040;-83
2022/04/03 02:26:22;;;;;;;4.88;3.25;;;;;;;8.76;97.96;99392.28;5052436;28;20485;-84
2022/04/03 02:28:47;;;;;;;4.72;3.08;;;;;;;8.85;98.15;99400.28;5052253;28;20116;-83
2022/04/03 02:31:14;;;;;;;7.28;3.88;;;;;;;8.95;97.53;99397.09;5052503;28;20083;-83
2022/04/03 02:33:39;;;;;;;5.50;3.92;;;;;;;9.05;97.32;99404.22;5052193;28;20029;-83
2022/04/03 02:36:05;;;;;;;6.07;3.67;;;;;;;9.21;96.17;99397.75;5051711;28;20036;-83
2022/04/03 02:38:30;;;;;;;7.50;3.60;;;;;;;9.29;95.59;99394.53;5050814;28;20054;-83
2022/04/03 02:40:56;;;;;;;8.50;3.53;;;;;;;9.43;94.86;99402.56;5050961;28;20123;-82
2022/04/03 02:43:21;;;;;;;7.22;3.60;;;;;;;9.43;93.81;99390.56;5050937;28;20448;-83
2022/04/03 02:45:47;;;;;;;8.07;3.65;;;;;;;9.45;93.36;99386.31;5052338;28;20049;-82
2022/04/03 02:48:12;;;;;;;6.57;3.65;;;;;;;9.59;92.71;99393.50;5052178;28;20522;-83
2022/04/03 02:50:38;;;;;;;7.28;4.00;;;;;;;9.43;91.77;99369.94;5049440;28;20044;-83
2022/04/03 02:53:03;;;;;;;4.45;3.28;;;;;;;9.54;91.76;99396.88;5049627;28;20453;-83
2022/04/03 02:55:29;;;;;;;5.30;3.80;;;;;;;9.43;92.02;99387.97;5049428;28;20124;-83
2022/04/03 02:57:55;;;;;;;7.90;3.88;;;;;;;9.57;92.08;99410.63;5049577;28;20037;-83
2022/04/03 03:00:20;;;;;;;5.78;3.88;;;;;;;9.18;92.41;99378.78;5049196;28;20033;-83
2022/04/03 03:02:47;;;;;;;5.35;3.72;;;;;;;9.22;92.98;99414.97;5049479;28;20044;-84
2022/04/03 03:05:14;;;;;;;6.78;3.80;;;;;;;9.30;93.20;99417.72;5049306;28;20041;-83
2022/04/03 03:07:41;;;;;;;5.25;3.42;;;;;;;9.34;92.74;99403.22;5049129;28;20160;-83
2022/04/03 03:10:09;;;;;;;5.70;3.70;;;;;;;9.51;92.39;99419.09;5049220;28;20045;-83
2022/04/03 03:12:34;;;;;;;6.57;3.45;;;;;;;9.53;91.74;99409.69;5049115;28;20649;-84
2022/04/03 03:15:00;;;;;;;5.55;3.60;;;;;;;9.45;91.33;99399.19;5048893;28;20108;-83
2022/04/03 03:17:26;;;;;;;9.80;3.88;;;;;;;9.32;91.12;99422.91;5032382;28;20129;-83
2022/04/03 03:19:51;;;;;;;10.93;5.13;;;;;;;9.05;91.54;99426.53;5032292;28;20051;-83
2022/04/03 03:22:17;;;;;;;5.75;3.53;;;;;;;8.94;91.59;99422.81;5050758;28;20041;-82
2022/04/03 03:24:43;;;;;;;6.60;3.95;;;;;;;8.62;91.92;99391.91;5050093;28;20029;-82
2022/04/03 03:27:09;;;;;;;5.82;3.75;;;;;;;8.69;91.81;99424.72;5028601;28;20488;-83
2022/04/03 03:29:38;;;;;;;6.55;3.80;;;;;;;8.67;91.86;99434.09;5012135;28;20041;-83
2022/04/03 03:32:04;;;;;;;12.35;4.47;;;;;;;8.72;91.91;99433.41;5029126;28;20038;-83
2022/04/03 03:34:29;;;;;;;6.70;3.75;;;;;;;8.73;91.49;99441.97;5012441;28;20083;-83
2022/04/03 03:36:55;;;;;;;6.10;3.80;;;;;;;8.81;91.97;99440.50;5012413;28;20746;-83
2022/04/03 03:39:20;;;;;;;7.38;3.83;;;;;;;8.84;91.38;99431.97;5029100;28;20040;-83
2022/04/03 03:41:46;;;;;;;7.60;4.00;;;;;;;8.87;91.72;99429.47;5028845;28;20037;-83
2022/04/03 03:44:12;;;;;;;9.13;3.88;;;;;;;8.87;92.03;99437.19;5028613;28;20519;-83
2022/04/03 03:46:39;;;;;;;7.65;3.90;;;;;;;8.67;91.58;99409.25;5011855;28;20140;-81
2022/04/03 03:49:06;;;;;;;6.75;4.05;;;;;;;8.67;91.63;99416.06;5011692;28;20485;-83
2022/04/03 03:51:32;;;;;;;6.45;4.05;;;;;;;8.45;92.38;99424.84;5011915;28;20041;-84
2022/04/03 03:53:58;;;;;;;8.13;4.28;;;;;;;8.55;92.93;99425.19;5011978;28;20085;-83
2022/04/03 03:56:23;;;;;;;6.43;4.07;;;;;;;8.53;92.79;99428.56;5028402;28;20033;-83
2022/04/03 03:58:49;;;;;;;6.90;4.35;;;;;;;8.66;93.23;99437.47;5045551;28;20049;-82
2022/04/03 04:01:15;;;;;;;6.00;3.97;;;;;;;8.71;93.39;99443.63;5049732;28;20185;-82
2022/04/03 04:03:40;;;;;;;6.43;3.15;;;;;;;8.78;93.22;99445.53;5050658;28;20086;-83
2022/04/03 04:06:06;;;;;;;5.88;3.80;;;;;;;8.69;94.17;99451.31;5050874;28;20025;-84
2022/04/03 04:08:31;;;;;;;6.60;4.93;;;;;;;8.58;93.53;99420.16;5049109;28;20037;-83
2022/04/03 04:10:58;;;;;;;8.32;4.28;;;;;;;8.78;93.79;99455.84;5050469;28;20048;-83
2022/04/03 04:13:24;;;;;;;7.38;3.83;;;;;;;8.70;94.12;99445.34;5050167;28;20480;-83
2022/04/03 04:15:50;;;;;;;4.93;3.20;;;;;;;8.70;93.92;99457.34;5050472;28;20739;-82
2022/04/03 04:18:16;;;;;;;8.63;6.95;;;;;;;8.51;94.24;99430.19;5050702;28;20041;-83
2022/04/03 04:20:41;;;;;;;10.38;7.85;;;;;;;8.72;94.38;99466.84;5049087;28;20131;-82
2022/04/03 04:23:07;;;;;;;8.35;4.63;;;;;;;8.52;95.57;99468.84;5049192;28;20039;-82
2022/04/03 04:25:32;;;;;;;5.78;4.28;;;;;;;8.63;95.41;99465.72;5050359;28;20029;-81
2022/04/03 04:28:00;;;;;;;5.47;3.83;;;;;;;8.55;95.42;99456.06;5048758;28;20029;-82
2022/04/03 04:30:25;;;;;;;5.65;3.80;;;;;;;8.58;95.29;99450.13;5049048;28;20032;-85
2022/04/03 04:32:51;;;;;;;7.15;4.85;;;;;;;8.28;94.31;99398.66;5049314;28;20025;-83
2022/04/03 04:35:16;;;;;;;6.00;4.20;;;;;;;8.61;94.86;99465.69;5050587;28;20404;-85
2022/04/03 04:37:42;;;;;;;6.97;3.88;;;;;;;8.55;95.37;99473.22;5050503;28;20036;-83
2022/04/03 04:40:09;;;;;;;8.15;4.10;;;;;;;8.44;95.81;99447.13;5050421;28;20036;-86
2022/04/03 04:42:35;;;;;;;8.55;4.22;;;;;;;8.68;95.67;99471.84;5049930;28;20087;-84
2022/04/03 04:45:03;;;;;;;8.27;5.03;;;;;;;8.73;95.20;99467.72;5050493;28;20412;-83
2022/04/03 04:47:33;;;;;;;10.25;4.30;;;;;;;8.48;94.94;99436.13;5050289;28;20037;-85
2022/04/03 04:49:59;;;;;;;12.82;6.07;;;;;;;8.67;94.94;99477.81;5050043;28;20041;-83
2022/04/03 04:52:24;;;;;;;8.57;4.03;;;;;;;8.67;94.70;99468.44;5027697;28;20176;-83
2022/04/03 04:54:50;;;;;;;12.80;5.28;;;;;;;8.70;95.78;99472.78;5027816;28;20129;-83
2022/04/03 04:57:15;;;;;;;9.13;6.60;;;;;;;8.74;96.49;99479.75;5027385;28;20472;-82
2022/04/03 04:59:41;;;;;;;10.90;7.00;;;;;;;8.56;97.35;99456.94;5030390;28;20037;-83
2022/04/03 05:02:06;;;;;;;9.93;6.10;;;;;;;8.71;97.00;99480.53;5014998;28;20050;-82
2022/04/03 05:04:33;;;;;;;10.80;6.68;;;;;;;8.78;97.17;99496.16;5015489;28;20041;-84
2022/04/03 05:06:58;;;;;;;11.82;6.90;;;;;;;8.78;96.92;99491.88;5015392;28;20505;-82
2022/04/03 05:09:23;;;;;;;12.23;6.55;;;;;;;8.85;96.38;99486.06;5031730;28;20065;-83
2022/04/03 05:11:50;;;;;;;7.45;5.82;;;;;;;8.92;96.31;99492.25;5014767;28;20120;-83
2022/04/03 05:14:15;;;;;;;9.57;6.00;;;;;;;9.07;96.01;99492.69;5014873;28;20117;-83
2022/04/03 05:16:41;;;;;;;8.30;6.75;;;;;;;9.00;95.71;99474.47;5014979;28;20692;-84
2022/04/03 05:19:07;;;;;;;8.77;6.68;;;;;;;9.13;95.00;99494.53;5031450;28;20106;-84
2022/04/03 05:21:33;;;;;;;9.48;6.25;;;;;;;9.05;98.85;99493.47;5031469;28;20065;-84
2022/04/03 05:23:58;;;;;;;9.48;4.97;;;;;;;8.85;99.77;99470.63;5041715;28;20067;-84
2022/04/03 05:26:24;;;;;;;8.57;5.40;;;;;;;8.69;98.94;99450.44;5053545;28;20021;-83
2022/04/03 05:28:50;;;;;;;8.05;5.28;;;;;;;8.69;98.26;99453.88;5052490;28;20480;-83
2022/04/03 05:31:17;;;;;;;7.25;5.40;;;;;;;9.10;98.53;99504.78;5052368;28;20029;-83
2022/04/03 05:33:43;;;;;;;9.77;6.20;;;;;;;9.15;98.77;99492.03;5052356;28;20090;-83
2022/04/03 05:36:08;;;;;;;8.00;6.03;;;;;;;9.22;99.48;99506.78;5053342;28;20037;-82
2022/04/03 05:38:34;;;;;;;9.85;5.93;;;;;;;9.17;100.00;99500.66;5051740;28;20480;-83
2022/04/03 05:40:59;;;;;;;7.47;6.32;;;;;;;9.08;100.00;99501.28;5051958;28;20024;-82
2022/04/03 05:43:25;;;;;;;11.90;7.53;;;;;;;9.00;100.00;99483.03;5053129;28;20031;-83
2022/04/03 05:45:50;;;;;;;12.85;7.82;;;;;;;9.21;100.00;99503.34;5053298;28;20178;-83
2022/04/03 05:48:17;;;;;;;10.40;7.60;;;;;;;9.29;100.00;99511.28;5053136;28;20029;-83
2022/04/03 05:50:43;;;;;;;10.23;7.75;;;;;;;9.25;100.00;99504.31;5053065;28;20082;-83
2022/04/03 05:53:08;;;;;;;10.55;6.45;;;;;;;9.37;100.00;99514.03;5030475;28;20044;-82
2022/04/03 05:55:34;;;;;;;8.68;6.72;;;;;;;9.48;100.00;99520.38;5013972;28;20037;-83
2022/04/03 05:58:00;;;;;;;6.78;5.45;;;;;;;9.50;100.00;99531.56;5014012;28;20041;-83
2022/04/03 06:00:25;;;;;;;7.90;5.88;;;;;;;9.37;98.82;99517.50;5030973;28;20072;-82
2022/04/03 06:03:02;;;;;;;8.50;6.05;;;;;;;9.31;99.85;99508.72;4991150;28;20510;-82
2022/04/03 06:05:35;;;;;;;9.00;5.57;;;;;;;9.46;100.00;99545.22;4991289;28;20078;-83
2022/04/03 06:08:02;;;;;;;7.45;5.00;;;;;;;8.81;100.00;99481.66;4990696;28;20034;-82
2022/04/03 06:10:28;;;;;;;6.45;4.80;;;;;;;9.27;100.00;99528.41;4974102;28;20034;-83
2022/04/03 06:13:01;;;;;;;9.90;4.93;;;;;;;9.53;100.00;99544.56;4974704;28;20041;-83
2022/04/03 06:15:35;;;;;;;8.02;6.18;;;;;;;9.43;100.00;99547.69;4991176;28;20147;-83
2022/04/03 06:18:02;;;;;;;5.82;4.05;;;;;;;9.63;100.00;99552.50;4991088;28;20058;-83
2022/04/03 06:20:27;;;;;;;8.57;4.95;;;;;;;9.75;97.42;99560.56;4974164;28;20030;-83
2022/04/03 06:22:53;;;;;;;6.65;4.63;;;;;;;9.83;96.29;99530.72;4990767;28;20532;-84
2022/04/03 06:25:20;;;;;;;6.18;4.50;;;;;;;9.61;97.18;99492.31;5029622;28;20045;-83
2022/04/03 06:27:45;;;;;;;8.68;6.10;;;;;;;10.11;96.59;99567.47;5030127;28;20667;-83
2022/04/03 06:30:12;;;;;;;7.72;4.75;;;;;;;10.01;97.74;99542.31;5029993;28;20132;-83
2022/04/03 06:32:38;;;;;;;8.25;4.72;;;;;;;10.16;98.60;99570.16;5013471;28;20033;-83
2022/04/03 06:35:04;;;;;;;7.97;4.57;;;;;;;10.21;97.73;99558.25;5050716;28;20059;-84
2022/04/03 06:37:30;;;;;;;8.52;5.20;;;;;;;10.37;97.14;99585.31;5052661;28;20025;-83
2022/04/03 06:39:56;;;;;;;8.60;4.90;;;;;;;10.50;97.34;99589.03;5051244;28;20033;-83
2022/04/03 06:42:21;;;;;;;6.38;3.83;;;;;;;10.02;96.48;99544.06;5052215;28;20029;-83
2022/04/03 06:44:47;;;;;;;6.80;4.40;;;;;;;10.08;94.99;99575.16;5050654;28;20081;-83
2022/04/03 06:47:12;;;;;;;4.90;3.55;;;;;;;10.26;95.38;99581.59;5052262;28;20052;-83
2022/04/03 06:49:40;;;;;;;9.93;6.47;;;;;;;10.42;94.70;99595.72;5052221;28;20033;-82
2022/04/03 06:52:07;;;;;;;11.98;7.70;;;;;;;10.58;94.77;99590.09;5052372;28;20021;-83
2022/04/03 06:54:32;;;;;;;6.18;4.65;;;;;;;10.58;95.39;99584.94;5050884;28;20116;-85
2022/04/03 06:56:58;;;;;;;6.95;4.82;;;;;;;10.73;93.60;99597.31;5050756;28;20029;-83
2022/04/03 06:59:24;;;;;;;9.90;4.63;;;;;;;10.82;92.76;99609.56;5052071;28;20031;-83
2022/04/03 07:01:49;;;;;;;7.88;3.65;;;;;;;10.48;91.63;99562.31;5050433;28;20025;-83
2022/04/03 07:04:14;;;;;;;5.03;2.97;;;;;;;10.77;90.03;99612.03;5050434;28;20029;-82
2022/04/03 07:06:40;;;;;;;5.32;3.10;;;;;;;10.71;90.05;99621.34;5051868;28;20024;-83
2022/04/03 07:09:05;;;;;;;5.43;3.30;;;;;;;10.75;90.28;99613.69;5051791;28;20075;-83
2022/04/03 07:11:31;;;;;;;4.05;2.97;;;;;;;10.59;90.51;99570.31;5050539;28;20033;-84
2022/04/03 07:13:56;;;;;;;4.68;3.10;;;;;;;10.59;88.57;99575.47;5051887;28;20032;-85
2022/04/03 07:16:21;;;;;;;6.88;3.30;;;;;;;10.91;87.60;99624.38;5050053;28;20075;-83
2022/04/03 07:18:47;;;;;;;4.88;2.90;;;;;;;10.79;86.45;99631.03;5051280;28;20056;-82
2022/04/03 07:21:12;;;;;;;5.97;3.42;;;;;;;10.80;89.90;99625.03;5050186;28;20416;-82
2022/04/03 07:23:38;;;;;;;4.63;3.05;;;;;;;11.03;90.21;99632.41;5051531;28;20029;-83
2022/04/03 07:26:05;;;;;;;3.50;2.22;;;;;;;11.09;80.93;99629.94;5051078;28;20111;-82
2022/04/03 07:28:31;;;;;;;2.55;1.67;;;;;;;10.97;78.07;99619.34;5051193;28;20025;-83
2022/04/03 07:30:56;;;;;;;3.17;1.83;;;;;;;11.23;81.25;99645.72;5051433;28;20170;-83
2022/04/03 07:33:22;;;;;;;3.05;1.60;;;;;;;11.39;73.35;99652.09;5049581;28;20032;-83
2022/04/03 07:35:47;;;;;;;2.63;1.45;;;;;;;11.59;71.43;99649.00;5050021;28;20037;-83
2022/04/03 07:38:14;;;;;;;5.18;1.75;;;;;;;11.53;72.27;99644.59;5051302;28;20029;-83
2022/04/03 07:40:39;;;;;;;3.85;1.70;;;;;;;11.38;74.17;99574.53;5051240;28;20405;-83
2022/04/03 07:43:06;;;;;;;4.18;1.48;;;;;;;11.98;68.69;99629.94;5051337;28;20460;-83
2022/04/03 07:45:32;;;;;;;3.70;1.75;;;;;;;11.93;72.96;99613.44;5049612;28;20060;-85
2022/04/03 07:47:58;;;;;;;4.40;1.75;;;;;;;11.81;73.39;99625.31;5050821;28;20029;-84
2022/04/03 07:50:25;;;;;;;4.13;2.03;;;;;;;11.98;73.38;99671.34;5049773;28;20044;-84
2022/04/03 07:52:51;;;;;;;4.22;1.90;;;;;;;12.00;74.63;99673.94;5050923;28;20082;-84
2022/04/03 07:55:18;;;;;;;3.35;1.77;;;;;;;12.05;72.81;99668.03;5049812;28;20452;-85
2022/04/03 07:57:44;;;;;;;4.13;1.70;;;;;;;11.92;67.99;99651.38;5050919;28;20037;-83
2022/04/03 08:00:11;;;;;;;3.17;1.80;;;;;;;11.94;66.32;99679.88;5049550;28;20029;-83
2022/04/03 08:02:41;;;;;;;2.75;1.40;;;;;;;11.84;65.75;99673.66;5049346;28;20033;-84
2022/04/03 08:05:07;;;;;;;2.35;1.63;;;;;;;12.15;66.42;99687.19;5049520;28;20427;-85
2022/04/03 08:07:44;;;;;;;3.10;1.70;;;;;;;12.37;66.24;99695.31;5050704;28;20035;-84
2022/04/03 08:10:13;;;;;;;4.07;1.70;;;;;;;11.97;64.88;99592.00;5049422;28;20028;-85
2022/04/03 08:12:42;;;;;;;2.60;1.48;;;;;;;12.54;62.40;99670.56;5049349;28;20036;-85
2022/04/03 08:15:08;;;;;;;5.68;1.73;;;;;;;12.63;64.84;99662.06;5050357;28;20041;-85
2022/04/03 08:17:34;;;;;;;2.67;1.70;;;;;;;12.79;61.77;99670.94;5050488;28;20488;-85
2022/04/03 08:20:01;;;;;;;3.33;1.30;;;;;;;13.11;59.05;99667.97;5050746;28;20021;-85
2022/04/03 08:22:28;;;;;;;1.15;0.90;;;;;;;13.17;53.89;99660.28;5050261;28;20029;-85
2022/04/03 08:24:54;;;;;;;5.68;1.25;;;;;;;13.24;50.19;99681.94;5048987;28;20017;-85
2022/04/03 08:27:19;;;;;;;2.65;1.05;;;;;;;13.11;49.64;99648.09;5048904;28;20036;-85
2022/04/03 08:29:45;;;;;;;1.63;0.80;;;;;;;13.14;49.96;99634.31;5050300;28;20033;-85
2022/04/03 08:32:13;;;;;;;1.17;0.90;;;;;;;13.38;50.78;99677.88;5049341;28;20029;-84
2022/04/03 08:34:40;;;;;;;1.27;1.00;;;;;;;13.15;48.33;99655.91;5055225;28;20412;-84
2022/04/03 08:37:06;;;;;;;1.42;0.95;;;;;;;13.36;48.13;99682.09;5056908;28;20111;-84
2022/04/03 08:39:31;;;;;;;2.15;1.13;;;;;;;13.69;48.74;99688.56;5056912;28;20096;-85
2022/04/03 08:41:57;;;;;;;1.25;0.90;;;;;;;13.56;46.52;99642.63;5055493;28;20037;-84
2022/04/03 08:44:23;;;;;;;2.20;0.90;;;;;;;13.73;46.88;99672.22;5056578;28;20041;-84
2022/04/03 08:46:49;;;;;;;1.17;0.80;;;;;;;13.70;47.20;99661.78;5055582;28;20128;-84
2022/04/03 08:49:19;;;;;;;2.22;0.90;;;;;;;13.89;47.52;99675.84;5056872;28;20087;-84
2022/04/03 08:51:46;;;;;;;2.17;1.00;;;;;;;14.02;45.72;99676.84;5055815;28;20059;-84
2022/04/03 08:54:14;;;;;;;1.48;0.80;;;;;;;13.90;46.20;99668.94;5056776;28;20531;-85
2022/04/03 08:56:39;;;;;;;3.92;1.15;;;;;;;13.90;45.30;99663.75;5055558;28;20131;-84
2022/04/03 08:59:05;;;;;;;1.50;0.60;;;;;;;14.08;46.78;99689.88;5057033;28;20115;-84
2022/04/03 09:01:30;;;;;;;3.25;0.75;;;;;;;13.82;46.07;99678.34;5056592;28;20075;-83
2022/04/03 09:03:55;;;;;;;3.92;0.90;;;;;;;14.15;44.58;99687.34;5056828;28;20032;-84
2022/04/03 09:06:24;;;;;;;0.95;0.68;;;;;;;14.24;42.11;99682.22;5056873;28;20091;-84
2022/04/03 09:08:50;;;;;;;2.47;1.23;;;;;;;14.33;41.74;99705.69;5055459;28;20841;-84
2022/04/03 09:11:16;;;;;;;0.85;0.70;;;;;;;14.17;42.68;99698.63;5055158;28;20124;-84
2022/04/03 09:13:43;;;;;;;2.67;1.42;;;;;;;14.57;42.44;99686.00;5055320;28;20115;-85
2022/04/03 09:16:10;;;;;;;0.52;0.52;;;;;;;14.25;38.89;99686.56;5056785;28;20025;-85
2022/04/03 09:18:52;;;;;;;3.70;1.45;;;;;;;14.65;39.89;99701.66;5056742;28;20756;-85
2022/04/03 09:21:26;;;;;;;2.95;0.93;;;;;;;14.53;41.10;99700.69;5055529;28;20531;-85
2022/04/03 09:24:02;;;;;;;1.90;0.93;;;;;;;14.30;41.51;99658.91;5054987;28;20025;-84
2022/04/03 09:26:29;;;;;;;1.27;0.70;;;;;;;14.72;43.11;99685.28;5055446;28;20033;-85
2022/04/03 09:29:11;;;;;;;2.10;0.88;;;;;;;14.51;42.49;99678.16;5056406;28;20060;-84
2022/04/03 09:31:37;;;;;;;0.80;0.80;;;;;;;14.58;41.34;99679.94;5056907;28;20029;-85
2022/04/03 09:34:06;;;;;;;3.35;0.73;;;;;;;14.82;42.23;99684.47;5054978;28;20055;-83
2022/04/03 09:36:32;;;;;;;1.42;0.70;;;;;;;15.02;41.69;99687.19;5056604;28;20124;-84
2022/04/03 09:39:18;;;;;;;1.15;0.70;;;;;;;15.13;39.65;99691.59;5055467;28;20448;-85
2022/04/03 09:42:04;;;;;;;1.42;0.47;;;;;;;14.95;39.32;99677.63;5056635;28;20040;-84
2022/04/03 09:44:31;;;;;;;1.80;0.70;;;;;;;14.81;37.97;99682.72;5055736;28;20037;-84
2022/04/03 09:47:12;;;;;;;2.00;0.50;;;;;;;14.88;38.81;99678.47;5052716;28;20021;-84
2022/04/03 09:49:38;;;;;;;1.25;0.50;;;;;;;14.85;38.14;99681.03;5052041;28;20037;-85
2022/04/03 09:52:04;;;;;;;1.73;0.70;;;;;;;15.02;40.54;99673.34;5053095;28;20495;-85
2022/04/03 09:54:29;;;;;;;1.27;0.70;;;;;;;14.88;38.41;99666.31;5053410;28;20033;-85
2022/04/03 09:56:55;;;;;;;3.33;0.60;;;;;;;14.94;37.97;99672.41;5053073;28;20025;-85
2022/04/03 09:59:22;;;;;;;1.80;0.77;;;;;;;15.16;38.76;99655.22;5052775;28;20485;-85
2022/04/03 10:01:56;;;;;;;2.55;0.90;;;;;;;15.09;38.37;99656.03;5051699;28;20036;-85
2022/04/03 10:04:23;;;;;;;1.38;0.70;;;;;;;15.17;38.21;99681.22;5052927;28;20029;-84
2022/04/03 10:06:48;;;;;;;0.57;0.57;;;;;;;15.24;35.51;99666.53;5035158;28;20119;-85
2022/04/03 10:09:16;;;;;;;0.93;0.50;;;;;;;15.29;35.66;99689.94;5051504;28;20116;-85
2022/04/03 10:11:42;;;;;;;0.90;0.60;;;;;;;15.63;35.16;99667.53;5051411;28;20129;-83
2022/04/03 10:14:09;;;;;;;1.23;0.70;;;;;;;15.61;35.77;99687.47;5052956;28;20025;-85
2022/04/03 10:16:34;;;;;;;2.50;0.50;;;;;;;15.25;35.05;99673.44;5051722;28;20077;-86
2022/04/03 10:19:00;;;;;;;0.73;0.52;;;;;;;15.58;35.78;99692.69;5052611;28;20025;-86
2022/04/03 10:21:31;;;;;;;0.88;0.47;;;;;;;15.79;36.74;99693.63;5052623;28;20485;-85
2022/04/03 10:24:24;;;;;;;1.02;0.70;;;;;;;14.94;35.04;99701.88;5051225;28;20174;-85
2022/04/03 10:27:15;;;;;;;1.60;0.80;;;;;;;14.83;34.45;99712.19;4971236;28;20077;-85
2022/04/03 10:29:43;;;;;;;1.50;0.50;;;;;;;15.23;33.61;99706.41;4955097;28;20044;-87
2022/04/03 10:32:21;;;;;;;0.88;0.55;;;;;;;15.28;36.71;99694.28;4955251;28;20278;-85
2022/04/03 10:34:50;;;;;;;1.98;0.55;;;;;;;15.25;35.53;99699.44;4955078;28;20446;-84
2022/04/03 10:37:33;;;;;;;0.60;0.60;;;;;;;15.15;34.30;99718.47;4971285;28;20442;-85
2022/04/03 10:40:16;;;;;;;2.20;0.60;;;;;;;15.54;35.89;99709.16;4971347;28;20054;-85
2022/04/03 10:43:03;;;;;;;2.50;0.60;;;;;;;15.69;33.85;99696.19;4971189;28;20519;-85
2022/04/03 10:45:46;;;;;;;1.00;0.57;;;;;;;15.51;34.91;99714.31;4971128;28;20050;-85
2022/04/03 10:48:23;;;;;;;1.55;0.60;;;;;;;15.75;35.85;99694.47;4954709;28;20427;-85
2022/04/03 10:51:11;;;;;;;0.80;0.63;;;;;;;16.21;37.05;99705.03;4971059;28;20490;-85
2022/04/03 10:53:42;;;;;;;1.17;0.70;;;;;;;16.04;35.19;99720.63;4970829;28;20045;-85
2022/04/03 10:56:28;;;;;;;1.17;0.88;;;;;;;15.55;34.62;99707.41;4970696;28;20027;-85
2022/04/03 10:58:57;;;;;;;1.02;0.60;;;;;;;15.43;34.95;99666.63;4970605;28;20051;-85
2022/04/03 11:01:31;;;;;;;0.70;0.60;;;;;;;15.79;34.96;99717.06;4954661;28;20050;-85
2022/04/03 11:03:58;;;;;;;1.17;0.93;;;;;;;16.04;33.35;99723.22;5020653;28;21314;-85
2022/04/03 11:06:27;;;;;;;1.52;0.63;;;;;;;16.07;32.23;99694.59;5051969;28;20087;-85
2022/04/03 11:08:57;;;;;;;1.33;0.63;;;;;;;16.34;30.28;99713.75;5050713;28;20459;-85
2022/04/03 11:11:52;;;;;;;0.90;0.40;;;;;;;16.22;31.75;99714.56;5050445;28;20090;-84
2022/04/03 11:14:50;;;;;;;0.63;0.60;;;;;;;16.08;32.00;99709.34;5051260;28;20021;-85
2022/04/03 11:17:15;;;;;;;2.08;0.95;;;;;;;16.47;31.62;99701.56;5050407;28;20535;-85
2022/04/03 11:19:47;;;;;;;11.15;6.47;;;;;;;16.54;30.63;99660.78;5028876;28;20113;-86
2022/04/03 11:22:16;;;;;;;0.63;0.52;;;;;;;16.36;27.67;99714.59;5029059;28;20041;-86
2022/04/03 11:24:42;;;;;;;0.55;0.55;;;;;;;16.47;28.54;99712.00;5028820;28;20136;-86
2022/04/03 11:27:08;;;;;;;1.10;0.70;;;;;;;16.50;28.05;99693.78;5029230;28;20524;-85
2022/04/03 11:29:35;;;;;;;0.77;0.47;;;;;;;16.27;27.52;99694.59;5012463;28;20056;-86
2022/04/03 11:32:04;;;;;;;0.40;0.40;;;;;;;16.34;28.94;99700.72;5012308;28;20033;-85
2022/04/03 11:34:30;;;;;;;1.15;0.80;;;;;;;16.90;30.77;99705.94;5028864;28;20107;-85
2022/04/03 11:36:58;;;;;;;0.50;0.50;;;;;;;16.39;30.35;99667.72;5028877;28;20042;-85